Time;durP1;ratioP1;P1;durP2;ratioP2;P2;SDS_P1;SDS_P2;PMS_P1;PMS_P2;Temp;Humidity;BMP_temperature;BMP_pressure;BME280_temperature;BME280_humidity;BME280_pressure;Samples;Min_cycle;Max_cycle;Signal;HPM_P1;HPM_P2
2021/04/30 00:00:47;;;;;;;0.88;0.70;;;7.10;99.90;;;;;;4936844;29;20219;-80
2021/04/30 00:03:13;;;;;;;0.57;0.57;;;7.00;99.90;;;;;;4938106;29;20191;-81
2021/04/30 00:05:39;;;;;;;0.93;0.60;;;6.90;99.90;;;;;;4936773;29;20205;-80
2021/04/30 00:08:04;;;;;;;0.73;0.73;;;6.80;99.90;;;;;;4938223;29;20240;-81
2021/04/30 00:10:30;;;;;;;0.50;0.50;;;6.90;99.90;;;;;;4936815;29;20214;-80
2021/04/30 00:12:55;;;;;;;3.92;1.42;;;6.90;99.90;;;;;;4938017;29;20191;-81
2021/04/30 00:15:22;;;;;;;0.45;0.45;;;7.00;99.90;;;;;;4938392;29;20179;-81
2021/04/30 00:17:47;;;;;;;0.30;0.30;;;6.90;99.90;;;;;;4937260;29;20588;-81
2021/04/30 00:20:14;;;;;;;0.40;0.40;;;6.80;99.90;;;;;;4936855;29;20283;-81
2021/04/30 00:22:40;;;;;;;1.17;0.75;;;6.90;99.90;;;;;;4936857;29;20178;-81
2021/04/30 00:25:06;;;;;;;0.47;0.47;;;6.90;99.90;;;;;;4937888;29;20171;-80
2021/04/30 00:27:32;;;;;;;0.65;0.65;;;7.00;99.90;;;;;;4936711;29;20729;-80
2021/04/30 00:29:57;;;;;;;2.97;1.63;;;7.00;99.90;;;;;;4937850;29;20286;-81
2021/04/30 00:32:23;;;;;;;0.55;0.52;;;7.00;99.90;;;;;;4936416;29;20210;-81
2021/04/30 00:34:49;;;;;;;0.30;0.30;;;6.80;99.90;;;;;;4936300;29;20179;-80
2021/04/30 00:37:14;;;;;;;1.05;1.05;;;6.80;99.90;;;;;;4936125;29;20181;-81
2021/04/30 00:39:40;;;;;;;0.85;0.85;;;6.60;99.90;;;;;;4937472;29;20357;-80
2021/04/30 00:42:06;;;;;;;0.90;0.90;;;6.60;99.90;;;;;;4937200;29;20234;-81
2021/04/30 00:44:32;;;;;;;0.65;0.65;;;6.50;99.90;;;;;;4935874;29;20171;-81
2021/04/30 00:46:58;;;;;;;0.60;0.60;;;6.40;99.90;;;;;;4936144;29;20628;-81
2021/04/30 00:49:24;;;;;;;0.77;0.77;;;6.40;99.90;;;;;;4935881;29;20175;-80
2021/04/30 00:51:50;;;;;;;3.05;1.75;;;6.40;99.90;;;;;;4935870;29;20738;-80
2021/04/30 00:54:16;;;;;;;0.40;0.40;;;6.50;99.90;;;;;;4937049;29;20171;-81
2021/04/30 00:56:42;;;;;;;0.30;0.30;;;6.50;99.90;;;;;;4936795;29;20223;-81
2021/04/30 00:59:08;;;;;;;4.13;1.35;;;6.50;99.90;;;;;;4936954;29;20638;-81
2021/04/30 01:01:34;;;;;;;0.98;0.98;;;6.60;99.90;;;;;;4936827;29;20183;-81
2021/04/30 01:04:00;;;;;;;1.60;1.50;;;6.60;99.90;;;;;;4937044;29;20167;-80
2021/04/30 01:06:25;;;;;;;0.20;0.20;;;6.50;99.90;;;;;;4935734;29;20175;-81
2021/04/30 01:08:51;;;;;;;1.42;1.25;;;6.30;99.90;;;;;;4935634;29;20536;-81
2021/04/30 01:11:17;;;;;;;17.20;1.42;;;6.20;99.90;;;;;;4936716;29;20249;-81
2021/04/30 01:13:43;;;;;;;1.60;1.52;;;6.20;99.90;;;;;;4935692;29;20225;-80
2021/04/30 01:16:08;;;;;;;0.40;0.40;;;6.20;99.90;;;;;;4935529;29;20171;-80
2021/04/30 01:18:45;;;;;;;2.10;2.00;;;6.00;99.90;;;;;;4936714;29;20176;-81
2021/04/30 01:21:12;;;;;;;0.90;0.88;;;6.30;99.90;;;;;;4936741;29;20254;-81
2021/04/30 01:23:45;;;;;;;3.17;1.05;;;6.50;99.90;;;;;;4936756;29;20632;-81
2021/04/30 01:26:10;;;;;;;0.40;0.40;;;6.40;99.90;;;;;;4935010;29;20198;-81
2021/04/30 01:28:36;;;;;;;0.55;0.55;;;6.30;99.90;;;;;;4936460;29;20533;-81
2021/04/30 01:31:02;;;;;;;0.68;0.68;;;6.30;99.90;;;;;;4936455;29;20219;-81
2021/04/30 01:33:27;;;;;;;3.15;0.95;;;6.00;99.90;;;;;;4936369;29;20159;-81
2021/04/30 01:35:53;;;;;;;1.10;1.00;;;5.80;99.90;;;;;;4936573;29;20155;-81
2021/04/30 01:38:18;;;;;;;0.50;0.50;;;5.80;99.90;;;;;;4935019;29;20203;-80
2021/04/30 01:40:44;;;;;;;0.57;0.57;;;6.00;99.90;;;;;;4936242;29;20205;-81
2021/04/30 01:43:15;;;;;;;0.60;0.60;;;6.00;99.90;;;;;;4935089;29;20195;-81
2021/04/30 01:46:07;;;;;;;0.40;0.40;;;5.90;99.90;;;;;;4936252;29;20234;-81
2021/04/30 01:48:34;;;;;;;2.92;2.20;;;6.00;99.90;;;;;;4936113;28;20183;-80
2021/04/30 01:51:01;;;;;;;0.82;0.82;;;6.40;99.90;;;;;;4934683;29;20222;-80
2021/04/30 01:53:33;;;;;;;0.22;0.22;;;6.30;99.90;;;;;;4936091;29;20242;-80
2021/04/30 01:56:01;;;;;;;0.65;0.55;;;6.20;99.90;;;;;;4935935;29;20159;-80
2021/04/30 01:58:26;;;;;;;1.15;0.77;;;6.00;99.90;;;;;;4936155;29;20226;-80
2021/04/30 02:00:54;;;;;;;0.43;0.43;;;6.00;99.90;;;;;;4946887;29;20187;-80
2021/04/30 02:03:20;;;;;;;0.93;0.60;;;6.00;99.90;;;;;;4952061;29;20194;-80
2021/04/30 02:05:45;;;;;;;0.95;0.95;;;6.00;99.90;;;;;;4956862;29;20160;-80
2021/04/30 02:08:13;;;;;;;9.43;1.83;;;6.20;99.90;;;;;;4938839;29;20190;-80
2021/04/30 02:10:41;;;;;;;1.73;0.95;;;6.30;99.90;;;;;;4936143;29;20289;-80
2021/04/30 02:13:07;;;;;;;1.02;0.77;;;6.20;99.90;;;;;;4936465;29;20165;-80
2021/04/30 02:15:36;;;;;;;2.08;1.45;;;6.20;99.90;;;;;;4936374;29;20163;-80
2021/04/30 02:18:02;;;;;;;0.30;0.30;;;6.20;99.90;;;;;;4935051;29;20176;-80
2021/04/30 02:20:28;;;;;;;0.65;0.65;;;6.40;99.90;;;;;;4936044;29;20269;-80
2021/04/30 02:22:54;;;;;;;0.57;0.40;;;6.20;99.90;;;;;;4936171;29;20164;-80
2021/04/30 02:25:21;;;;;;;0.65;0.65;;;6.00;99.90;;;;;;4936025;29;20171;-80
2021/04/30 02:27:49;;;;;;;0.50;0.50;;;5.80;99.90;;;;;;4935976;29;20759;-80
2021/04/30 02:30:18;;;;;;;0.85;0.85;;;5.70;99.90;;;;;;4934459;29;20261;-80
2021/04/30 02:32:45;;;;;;;1.25;1.17;;;6.10;99.90;;;;;;4934889;29;20173;-80
2021/04/30 02:35:32;;;;;;;0.95;0.95;;;5.90;99.90;;;;;;4935779;29;20506;-80
2021/04/30 02:37:59;;;;;;;1.75;1.65;;;5.70;99.90;;;;;;4937692;29;20219;-80
2021/04/30 02:40:27;;;;;;;0.90;0.90;;;5.70;99.90;;;;;;4938355;29;20198;-80
2021/04/30 02:42:55;;;;;;;1.27;1.20;;;5.70;99.90;;;;;;4938337;29;20254;-79
2021/04/30 02:45:21;;;;;;;0.60;0.60;;;5.80;99.90;;;;;;4939669;29;20279;-79
2021/04/30 02:47:49;;;;;;;0.40;0.40;;;5.90;99.90;;;;;;4939607;29;20674;-80
2021/04/30 02:50:17;;;;;;;0.73;0.73;;;5.90;99.90;;;;;;4939490;29;20212;-80
2021/04/30 02:52:44;;;;;;;19.92;1.55;;;5.90;99.90;;;;;;4939474;29;20175;-80
2021/04/30 02:55:11;;;;;;;0.30;0.30;;;5.80;99.90;;;;;;4939477;29;20171;-80
2021/04/30 02:57:37;;;;;;;1.08;1.08;;;5.60;99.90;;;;;;4937714;29;20342;-80
2021/04/30 03:00:04;;;;;;;1.60;1.58;;;5.80;99.90;;;;;;4939335;29;20308;-80
2021/04/30 03:02:30;;;;;;;1.65;0.88;;;5.60;99.90;;;;;;4939249;29;20163;-80
2021/04/30 03:04:56;;;;;;;0.70;0.50;;;5.60;99.90;;;;;;4937916;29;20254;-80
2021/04/30 03:07:22;;;;;;;1.08;1.08;;;5.60;99.90;;;;;;4939200;29;20307;-81
2021/04/30 03:09:47;;;;;;;0.75;0.75;;;6.00;99.90;;;;;;4939065;29;20198;-80
2021/04/30 03:12:13;;;;;;;0.80;0.80;;;6.20;99.90;;;;;;4937732;29;20687;-81
2021/04/30 03:14:38;;;;;;;0.40;0.40;;;6.10;99.90;;;;;;4937758;29;20174;-81
2021/04/30 03:17:04;;;;;;;5.55;1.08;;;6.00;99.90;;;;;;4938913;29;20186;-82
2021/04/30 03:19:30;;;;;;;0.90;0.90;;;5.90;99.90;;;;;;4939074;29;20250;-81
2021/04/30 03:21:55;;;;;;;1.45;1.05;;;5.90;99.90;;;;;;4937455;29;20233;-81
2021/04/30 03:24:21;;;;;;;0.47;0.47;;;6.00;99.90;;;;;;4937486;29;20222;-81
2021/04/30 03:26:46;;;;;;;1.25;1.15;;;6.00;99.90;;;;;;4938996;29;20598;-81
2021/04/30 03:29:12;;;;;;;1.00;1.00;;;6.10;99.90;;;;;;4937443;29;20171;-81
2021/04/30 03:31:38;;;;;;;3.08;0.65;;;6.30;99.90;;;;;;4938530;29;20217;-81
2021/04/30 03:34:03;;;;;;;1.95;0.73;;;6.50;99.90;;;;;;4938597;29;20171;-80
2021/04/30 03:36:29;;;;;;;2.05;1.08;;;6.50;99.90;;;;;;4937320;29;20167;-81
2021/04/30 03:38:55;;;;;;;0.60;0.60;;;6.70;99.90;;;;;;4937231;29;20179;-81
2021/04/30 03:41:20;;;;;;;0.70;0.70;;;6.80;99.90;;;;;;4938431;29;20423;-81
2021/04/30 03:43:46;;;;;;;0.73;0.70;;;6.80;99.90;;;;;;4937205;29;20222;-80
2021/04/30 03:46:12;;;;;;;2.08;1.08;;;6.60;99.90;;;;;;4938377;29;20160;-80
2021/04/30 03:48:38;;;;;;;4.22;1.13;;;6.50;99.90;;;;;;4937847;29;20163;-80
2021/04/30 03:51:04;;;;;;;0.95;0.95;;;6.80;99.90;;;;;;4937159;29;20219;-80
2021/04/30 03:53:30;;;;;;;0.43;0.43;;;6.60;99.90;;;;;;4938139;29;20191;-81
2021/04/30 03:55:56;;;;;;;0.52;0.52;;;6.50;99.90;;;;;;4937924;29;20206;-80
2021/04/30 03:58:22;;;;;;;1.90;1.80;;;6.40;99.90;;;;;;4936928;29;20182;-81
2021/04/30 04:00:47;;;;;;;0.77;0.77;;;6.50;99.90;;;;;;4938501;29;20191;-81
2021/04/30 04:03:13;;;;;;;0.75;0.75;;;6.60;99.90;;;;;;4936733;29;20175;-81
2021/04/30 04:05:38;;;;;;;1.00;1.00;;;6.50;99.90;;;;;;4937844;29;20257;-80
2021/04/30 04:08:05;;;;;;;0.63;0.63;;;6.70;99.90;;;;;;4938003;29;20171;-80
2021/04/30 04:10:31;;;;;;;0.70;0.70;;;6.80;99.90;;;;;;4936543;29;20219;-81
2021/04/30 04:12:57;;;;;;;1.35;1.25;;;6.80;99.90;;;;;;4937756;29;20624;-81
2021/04/30 04:15:23;;;;;;;11.10;3.28;;;6.80;99.90;;;;;;4937757;29;20240;-81
2021/04/30 04:17:48;;;;;;;1.45;1.42;;;6.70;99.90;;;;;;4937719;29;20246;-81
2021/04/30 04:20:14;;;;;;;2.20;1.35;;;6.80;99.90;;;;;;4936404;29;20526;-81
2021/04/30 04:22:40;;;;;;;0.93;0.93;;;6.80;99.90;;;;;;4936420;29;20206;-82
2021/04/30 04:25:07;;;;;;;1.35;1.25;;;6.90;99.90;;;;;;4936287;29;20179;-80
2021/04/30 04:27:33;;;;;;;0.50;0.50;;;7.00;99.90;;;;;;4936182;29;20184;-80
2021/04/30 04:30:00;;;;;;;1.20;1.10;;;6.80;99.90;;;;;;4937410;29;20191;-80
2021/04/30 04:32:25;;;;;;;0.98;0.98;;;6.60;99.90;;;;;;4936328;29;20195;-80
2021/04/30 04:34:51;;;;;;;1.38;1.23;;;6.50;99.90;;;;;;4937608;29;20702;-81
2021/04/30 04:37:17;;;;;;;0.50;0.50;;;6.50;99.90;;;;;;4937675;29;20175;-79
2021/04/30 04:39:43;;;;;;;3.95;2.80;;;6.60;99.90;;;;;;4940588;29;20164;-81
2021/04/30 04:42:09;;;;;;;0.52;0.52;;;6.70;99.90;;;;;;4951455;29;20191;-80
2021/04/30 04:44:34;;;;;;;1.33;1.27;;;6.70;99.90;;;;;;4957919;29;20643;-80
2021/04/30 04:47:00;;;;;;;1.77;1.67;;;6.60;99.90;;;;;;4937667;29;20179;-79
2021/04/30 04:49:26;;;;;;;1.67;1.58;;;6.60;99.90;;;;;;4937744;29;20575;-79
2021/04/30 04:51:52;;;;;;;2.35;1.13;;;6.80;99.90;;;;;;4937391;29;20242;-80
2021/04/30 04:54:18;;;;;;;0.60;0.60;;;6.90;99.90;;;;;;4935862;29;20199;-79
2021/04/30 04:56:44;;;;;;;2.45;1.63;;;7.10;99.90;;;;;;4935607;29;20226;-80
2021/04/30 04:59:09;;;;;;;2.33;1.65;;;7.10;99.90;;;;;;4935673;29;20214;-80
2021/04/30 05:01:35;;;;;;;1.95;0.90;;;7.00;99.90;;;;;;4936197;29;20195;-80
2021/04/30 05:04:01;;;;;;;0.35;0.35;;;7.00;99.90;;;;;;4937019;29;20171;-80
2021/04/30 05:06:28;;;;;;;1.38;1.38;;;7.10;99.90;;;;;;4935547;29;20623;-80
2021/04/30 05:08:53;;;;;;;1.52;1.33;;;7.20;99.90;;;;;;4936789;29;20171;-80
2021/04/30 05:11:19;;;;;;;1.20;1.08;;;7.50;99.90;;;;;;4935294;29;20269;-81
2021/04/30 05:13:45;;;;;;;0.90;0.90;;;7.50;99.90;;;;;;4936721;29;20174;-81
2021/04/30 05:16:13;;;;;;;1.05;1.05;;;7.30;99.90;;;;;;4935453;29;20179;-81
2021/04/30 05:18:39;;;;;;;1.08;1.08;;;7.20;99.90;;;;;;4935346;29;20265;-81
2021/04/30 05:21:04;;;;;;;2.00;1.75;;;7.20;99.90;;;;;;4935214;29;20246;-81
2021/04/30 05:23:30;;;;;;;1.13;1.13;;;7.30;99.90;;;;;;4935437;29;20194;-81
2021/04/30 05:25:56;;;;;;;3.25;1.92;;;7.40;99.90;;;;;;4935450;29;20194;-81
2021/04/30 05:28:22;;;;;;;1.55;1.45;;;7.30;99.90;;;;;;4936473;29;20171;-81
2021/04/30 05:30:48;;;;;;;3.83;1.55;;;7.40;99.90;;;;;;4936112;29;20262;-81
2021/04/30 05:33:14;;;;;;;0.55;0.55;;;7.60;99.90;;;;;;4936413;29;20174;-81
2021/04/30 05:35:40;;;;;;;15.68;2.33;;;7.70;99.90;;;;;;4935119;29;20210;-81
2021/04/30 05:38:05;;;;;;;0.95;0.95;;;7.80;99.90;;;;;;4935128;29;20722;-81
2021/04/30 05:40:32;;;;;;;1.15;0.63;;;7.80;99.90;;;;;;4936194;29;20194;-81
2021/04/30 05:42:58;;;;;;;1.90;1.38;;;8.00;99.90;;;;;;4934732;29;20210;-81
2021/04/30 05:45:23;;;;;;;6.53;0.80;;;8.00;99.90;;;;;;4934980;29;20586;-81
2021/04/30 05:47:49;;;;;;;0.95;0.93;;;8.00;99.90;;;;;;4934814;29;20258;-81
2021/04/30 05:50:14;;;;;;;2.35;2.15;;;7.90;99.90;;;;;;4936480;29;20290;-81
2021/04/30 05:52:40;;;;;;;1.08;0.98;;;8.00;99.90;;;;;;4935268;29;20174;-80
2021/04/30 05:55:07;;;;;;;1.75;1.52;;;8.10;99.90;;;;;;4935139;29;20550;-81
2021/04/30 05:57:33;;;;;;;0.77;0.77;;;8.30;99.90;;;;;;4934868;29;20237;-81
2021/04/30 05:59:59;;;;;;;1.42;1.33;;;8.70;99.90;;;;;;4936133;29;20198;-81
2021/04/30 06:02:25;;;;;;;3.20;2.85;;;8.60;99.90;;;;;;4936279;29;20167;-80
2021/04/30 06:04:50;;;;;;;1.38;1.30;;;8.70;99.90;;;;;;4936454;29;20167;-81
2021/04/30 06:07:16;;;;;;;3.30;1.50;;;8.90;99.90;;;;;;4936489;29;20183;-81
2021/04/30 06:09:42;;;;;;;0.68;0.68;;;9.00;99.90;;;;;;4936506;29;20167;-81
2021/04/30 06:12:08;;;;;;;5.43;2.03;;;9.10;99.90;;;;;;4936165;29;20557;-81
2021/04/30 06:14:34;;;;;;;1.17;1.17;;;9.20;99.90;;;;;;4936392;29;20167;-80
2021/04/30 06:17:00;;;;;;;1.67;1.52;;;9.20;99.90;;;;;;4935661;29;20323;-80
2021/04/30 06:19:26;;;;;;;2.65;1.65;;;9.20;99.90;;;;;;4935264;29;20191;-81
2021/04/30 06:21:53;;;;;;;1.98;1.88;;;9.50;99.90;;;;;;4936768;29;20270;-79
2021/04/30 06:24:19;;;;;;;2.95;2.65;;;9.50;99.90;;;;;;4936523;29;20176;-80
2021/04/30 06:26:45;;;;;;;2.22;2.05;;;9.50;99.90;;;;;;4934889;29;20177;-80
2021/04/30 06:29:10;;;;;;;0.98;0.98;;;9.50;99.90;;;;;;4934917;29;20234;-81
2021/04/30 06:31:37;;;;;;;4.72;1.52;;;9.70;99.90;;;;;;4936148;29;20214;-80
2021/04/30 06:34:03;;;;;;;2.00;1.55;;;10.00;99.90;;;;;;4935115;29;20163;-80
2021/04/30 06:36:29;;;;;;;0.75;0.75;;;10.00;99.90;;;;;;4935734;29;20649;-80
2021/04/30 06:38:55;;;;;;;1.02;0.93;;;10.20;99.90;;;;;;4934867;29;20336;-80
2021/04/30 06:41:20;;;;;;;1.90;1.80;;;10.40;99.90;;;;;;4936369;29;20649;-80
2021/04/30 06:43:46;;;;;;;2.15;1.92;;;10.40;99.90;;;;;;4935723;29;20186;-79
2021/04/30 06:46:12;;;;;;;1.42;1.33;;;10.40;99.90;;;;;;4934744;29;20639;-81
2021/04/30 06:48:37;;;;;;;0.90;0.80;;;10.20;99.90;;;;;;4934769;29;20187;-80
2021/04/30 06:51:03;;;;;;;2.17;1.85;;;9.90;99.90;;;;;;4935749;29;20238;-80
2021/04/30 06:53:29;;;;;;;4.22;1.77;;;9.80;99.90;;;;;;4935559;29;20174;-79
2021/04/30 06:55:55;;;;;;;0.85;0.85;;;10.10;99.90;;;;;;4935360;29;20176;-77
2021/04/30 06:58:20;;;;;;;2.78;1.90;;;10.10;99.90;;;;;;4935527;29;20171;-78
2021/04/30 07:00:46;;;;;;;1.13;1.13;;;10.10;99.90;;;;;;4935525;29;20873;-79
2021/04/30 07:03:11;;;;;;;1.80;1.65;;;10.40;99.90;;;;;;4935665;29;20623;-79
2021/04/30 07:05:37;;;;;;;1.45;1.35;;;10.60;99.90;;;;;;4935969;29;20511;-80
2021/04/30 07:08:03;;;;;;;1.63;1.35;;;10.50;99.90;;;;;;4935531;29;20238;-80
2021/04/30 07:10:33;;;;;;;1.58;1.35;;;10.80;99.90;;;;;;4935685;29;20270;-80
2021/04/30 07:12:59;;;;;;;8.30;3.67;;;10.80;99.90;;;;;;4935494;29;20158;-79
2021/04/30 07:15:25;;;;;;;1.10;1.10;;;11.10;99.90;;;;;;4935431;29;20163;-78
2021/04/30 07:17:50;;;;;;;3.10;1.48;;;11.40;99.90;;;;;;4947698;29;20201;-78
2021/04/30 07:20:16;;;;;;;5.78;1.50;;;11.60;99.90;;;;;;4949800;29;20195;-80
2021/04/30 07:22:42;;;;;;;1.42;1.33;;;11.70;99.90;;;;;;4948542;28;20151;-80
2021/04/30 07:25:09;;;;;;;2.33;1.20;;;11.40;99.90;;;;;;4950291;29;20671;-80
2021/04/30 07:27:34;;;;;;;7.68;2.33;;;11.30;99.90;;;;;;4951113;28;20219;-80
2021/04/30 07:30:00;;;;;;;2.03;1.73;;;11.40;99.90;;;;;;4937690;29;20198;-79
2021/04/30 07:32:26;;;;;;;1.23;1.15;;;11.20;99.90;;;;;;4938648;29;20171;-79
2021/04/30 07:34:51;;;;;;;3.22;1.33;;;11.40;99.90;;;;;;4938794;29;20593;-80
2021/04/30 07:37:17;;;;;;;1.77;1.00;;;11.60;99.90;;;;;;4942085;29;20239;-79
2021/04/30 07:39:44;;;;;;;1.95;1.85;;;11.90;99.90;;;;;;4937417;29;20160;-81
2021/04/30 07:42:11;;;;;;;1.33;1.23;;;12.20;99.90;;;;;;4937246;29;20191;-80
2021/04/30 07:44:36;;;;;;;2.15;1.85;;;12.60;99.90;;;;;;4937542;29;20170;-81
2021/04/30 07:47:03;;;;;;;2.15;1.25;;;12.40;99.90;;;;;;4937719;29;20167;-79
2021/04/30 07:49:29;;;;;;;1.67;1.58;;;12.40;99.90;;;;;;4936951;29;20151;-80
2021/04/30 07:51:54;;;;;;;9.63;2.15;;;12.30;99.90;;;;;;4937953;29;20218;-81
2021/04/30 07:54:20;;;;;;;1.40;1.30;;;12.20;99.90;;;;;;4937740;29;20759;-78
2021/04/30 07:56:46;;;;;;;0.80;0.80;;;12.00;99.90;;;;;;4956820;28;20226;-79
2021/04/30 07:59:12;;;;;;;1.02;1.02;;;11.90;99.90;;;;;;4956953;28;20166;-80
2021/04/30 08:01:37;;;;;;;13.73;1.55;;;11.80;99.90;;;;;;4956470;28;20245;-80
2021/04/30 08:04:03;;;;;;;1.17;1.15;;;11.70;99.90;;;;;;4956693;28;20204;-80
2021/04/30 08:06:29;;;;;;;1.00;1.00;;;11.50;99.90;;;;;;4957087;28;20162;-80
2021/04/30 08:08:55;;;;;;;3.22;1.98;;;11.40;99.90;;;;;;4956796;28;20198;-80
2021/04/30 08:11:20;;;;;;;2.05;1.48;;;11.70;99.90;;;;;;4956569;28;20213;-80
2021/04/30 08:13:46;;;;;;;1.42;1.33;;;12.00;99.90;;;;;;4956594;28;20202;-80
2021/04/30 08:16:12;;;;;;;2.05;1.10;;;12.10;99.90;;;;;;4956485;28;20177;-79
2021/04/30 08:18:38;;;;;;;0.75;0.75;;;12.40;99.90;;;;;;4958027;28;20167;-82
2021/04/30 08:21:05;;;;;;;0.70;0.70;;;12.30;99.90;;;;;;4975661;28;20195;-84
2021/04/30 08:23:30;;;;;;;1.77;1.50;;;12.00;99.90;;;;;;4961190;28;20174;-80
2021/04/30 08:25:57;;;;;;;6.13;1.75;;;11.80;99.90;;;;;;4970173;29;20167;-79
2021/04/30 08:28:22;;;;;;;0.82;0.82;;;12.00;99.90;;;;;;4963025;28;20260;-79
2021/04/30 08:30:49;;;;;;;1.20;1.15;;;12.10;99.90;;;;;;4946655;29;20675;-79
2021/04/30 08:33:14;;;;;;;0.63;0.63;;;12.30;99.90;;;;;;4944972;29;20151;-78
2021/04/30 08:35:40;;;;;;;3.63;1.02;;;12.10;99.90;;;;;;4940396;29;20175;-78
2021/04/30 08:38:06;;;;;;;0.95;0.95;;;12.20;99.90;;;;;;4938904;29;20171;-78
2021/04/30 08:40:31;;;;;;;1.23;1.13;;;12.40;99.90;;;;;;4937133;29;20195;-78
2021/04/30 08:42:58;;;;;;;0.95;0.95;;;12.60;99.90;;;;;;4937544;29;20168;-77
2021/04/30 08:45:27;;;;;;;2.50;1.80;;;12.90;99.90;;;;;;4937146;29;20160;-77
2021/04/30 08:47:54;;;;;;;2.08;1.02;;;13.20;99.90;;;;;;4937223;29;20581;-78
2021/04/30 08:50:19;;;;;;;1.60;1.13;;;13.20;99.90;;;;;;4936651;29;20207;-79
2021/04/30 08:52:45;;;;;;;1.00;1.00;;;13.00;99.90;;;;;;4937194;29;20242;-78
2021/04/30 08:55:14;;;;;;;1.10;0.90;;;12.90;99.90;;;;;;4937058;29;20645;-79
2021/04/30 08:57:43;;;;;;;1.77;1.67;;;13.20;99.90;;;;;;4936879;29;20258;-79
2021/04/30 09:00:10;;;;;;;0.95;0.95;;;13.40;99.90;;;;;;4936859;29;20199;-78
2021/04/30 09:02:39;;;;;;;1.42;1.33;;;13.50;99.90;;;;;;4937181;29;20152;-81
2021/04/30 09:05:10;;;;;;;3.60;1.77;;;13.30;99.90;;;;;;4937028;29;20219;-79
2021/04/30 09:07:40;;;;;;;1.38;1.25;;;13.20;99.90;;;;;;4936700;29;20222;-79
2021/04/30 09:10:13;;;;;;;2.17;1.08;;;12.90;99.90;;;;;;4937062;29;20245;-79
2021/04/30 09:12:42;;;;;;;1.17;1.17;;;12.90;99.90;;;;;;4936373;29;20156;-79
2021/04/30 09:15:21;;;;;;;0.93;0.93;;;12.90;99.90;;;;;;4936743;29;20172;-79
2021/04/30 09:17:47;;;;;;;1.42;1.00;;;13.00;99.90;;;;;;4936635;29;20174;-79
2021/04/30 09:20:13;;;;;;;1.40;1.30;;;13.50;99.90;;;;;;4936491;29;20549;-79
2021/04/30 09:22:43;;;;;;;2.60;2.15;;;13.90;99.90;;;;;;4937048;29;20616;-79
2021/04/30 09:25:16;;;;;;;1.02;1.02;;;14.00;99.90;;;;;;4937360;29;20219;-79
2021/04/30 09:27:47;;;;;;;18.25;2.30;;;14.10;99.90;;;;;;4936309;29;20261;-79
2021/04/30 09:30:16;;;;;;;1.40;0.80;;;13.90;99.90;;;;;;4936251;29;20659;-79
2021/04/30 09:33:10;;;;;;;1.75;1.65;;;13.40;99.90;;;;;;4936863;29;20175;-79
2021/04/30 09:36:02;;;;;;;0.60;0.60;;;13.00;99.90;;;;;;4936503;29;20205;-79
2021/04/30 09:38:27;;;;;;;1.83;1.73;;;13.00;99.90;;;;;;4935500;29;20193;-80
2021/04/30 09:41:02;;;;;;;2.45;1.52;;;12.90;99.90;;;;;;4936293;29;20195;-80
2021/04/30 09:43:44;;;;;;;1.20;0.98;;;13.10;99.90;;;;;;4936398;29;20165;-79
2021/04/30 09:46:31;;;;;;;1.10;1.00;;;13.20;99.90;;;;;;4936337;29;20159;-81
2021/04/30 09:49:13;;;;;;;1.58;1.48;;;13.40;99.90;;;;;;4935239;29;20181;-80
2021/04/30 09:51:53;;;;;;;1.05;1.02;;;13.70;99.90;;;;;;4936000;29;20211;-79
2021/04/30 09:54:25;;;;;;;2.60;1.38;;;14.00;99.90;;;;;;4937690;29;20163;-79
2021/04/30 09:57:08;;;;;;;3.25;1.65;;;14.50;99.90;;;;;;4943039;29;20218;-79
2021/04/30 09:59:39;;;;;;;1.50;1.25;;;14.40;99.90;;;;;;4943653;29;20613;-79
2021/04/30 10:02:11;;;;;;;1.27;1.17;;;14.60;99.90;;;;;;4939826;29;20187;-79
2021/04/30 10:04:37;;;;;;;9.52;1.65;;;14.40;99.90;;;;;;4936202;29;20254;-79
2021/04/30 10:07:04;;;;;;;1.15;1.05;;;14.20;99.90;;;;;;4935773;29;20174;-77
2021/04/30 10:09:31;;;;;;;1.13;1.08;;;13.90;99.90;;;;;;4935873;29;20620;-79
2021/04/30 10:11:57;;;;;;;1.50;1.20;;;13.40;99.90;;;;;;4935550;29;20217;-79
2021/04/30 10:14:24;;;;;;;1.83;1.17;;;13.30;99.90;;;;;;4935618;29;20175;-78
2021/04/30 10:16:51;;;;;;;0.90;0.80;;;13.10;99.90;;;;;;4950660;29;20230;-78
2021/04/30 10:19:17;;;;;;;2.25;1.10;;;13.30;99.90;;;;;;4954312;28;20163;-79
2021/04/30 10:21:44;;;;;;;0.98;0.95;;;13.10;99.90;;;;;;4954180;28;20194;-78
2021/04/30 10:24:17;;;;;;;2.25;1.92;;;13.00;99.90;;;;;;4954787;28;20519;-78
2021/04/30 10:26:44;;;;;;;2.00;1.90;;;12.80;99.90;;;;;;4954897;28;20202;-79
2021/04/30 10:29:16;;;;;;;1.65;1.50;;;13.00;99.90;;;;;;4955517;28;20190;-78
2021/04/30 10:31:48;;;;;;;5.65;3.22;;;13.20;99.90;;;;;;4955155;28;20221;-79
2021/04/30 10:34:23;;;;;;;3.08;2.30;;;13.40;99.90;;;;;;4955013;28;20171;-79
2021/04/30 10:36:51;;;;;;;7.03;1.58;;;13.50;99.90;;;;;;4954390;28;20165;-79
2021/04/30 10:39:31;;;;;;;2.42;1.70;;;13.60;99.90;;;;;;4954504;28;20163;-78
2021/04/30 10:41:56;;;;;;;3.72;2.60;;;13.60;99.90;;;;;;4954494;28;20182;-78
2021/04/30 10:44:32;;;;;;;2.08;1.95;;;13.40;99.90;;;;;;4954344;28;20170;-78
2021/04/30 10:47:12;;;;;;;2.53;2.25;;;13.00;99.90;;;;;;4954311;28;20166;-78
2021/04/30 10:49:38;;;;;;;1.90;1.80;;;13.10;99.90;;;;;;4954365;28;20165;-78
2021/04/30 10:52:04;;;;;;;2.05;1.27;;;13.10;99.90;;;;;;4954846;28;20214;-79
2021/04/30 10:54:36;;;;;;;4.35;1.42;;;13.10;99.90;;;;;;4954794;28;20166;-78
2021/04/30 10:57:06;;;;;;;1.40;1.30;;;13.20;99.90;;;;;;4954722;28;20244;-78
2021/04/30 10:59:40;;;;;;;68.78;4.25;;;13.50;99.90;;;;;;4957444;28;20159;-79
2021/04/30 11:02:10;;;;;;;21.23;2.03;;;13.60;99.90;;;;;;4958529;28;20225;-79
2021/04/30 11:04:35;;;;;;;4.10;1.20;;;13.90;99.90;;;;;;4958514;28;20162;-79
2021/04/30 11:07:03;;;;;;;20.45;3.13;;;13.40;99.90;;;;;;4956636;29;20626;-79
2021/04/30 11:09:35;;;;;;;1.33;1.23;;;13.30;99.90;;;;;;4958028;28;20163;-79
2021/04/30 11:12:24;;;;;;;2.58;1.63;;;13.50;99.90;;;;;;4957699;28;20242;-79
2021/04/30 11:15:04;;;;;;;1.48;1.10;;;13.60;99.90;;;;;;4957624;28;20542;-79
2021/04/30 11:17:57;;;;;;;6.95;1.90;;;14.10;99.90;;;;;;4957913;28;20177;-79
2021/04/30 11:20:25;;;;;;;4.47;1.85;;;13.90;99.90;;;;;;4957657;28;20205;-79
2021/04/30 11:23:14;;;;;;;3.50;2.03;;;14.10;99.90;;;;;;4957007;29;20167;-78
2021/04/30 11:25:57;;;;;;;1.10;1.10;;;14.60;99.90;;;;;;4958026;28;20294;-79
2021/04/30 11:28:43;;;;;;;3.03;1.42;;;15.00;99.90;;;;;;4957773;28;20257;-78
2021/04/30 11:31:17;;;;;;;2.90;2.22;;;15.00;99.90;;;;;;4953816;28;20234;-78
2021/04/30 11:34:04;;;;;;;2.40;1.70;;;14.90;99.90;;;;;;4956668;29;20172;-79
2021/04/30 11:36:31;;;;;;;2.95;2.20;;;14.90;99.90;;;;;;4958212;29;20201;-79
2021/04/30 11:39:12;;;;;;;1.92;1.83;;;14.90;99.90;;;;;;4942462;28;20178;-79
2021/04/30 11:41:39;;;;;;;11.18;2.50;;;15.30;99.90;;;;;;4936999;29;20599;-79
2021/04/30 11:44:06;;;;;;;4.90;3.10;;;15.50;99.90;;;;;;4938117;29;20203;-78
2021/04/30 11:46:32;;;;;;;1.83;1.00;;;15.90;99.90;;;;;;4938279;29;20187;-78
2021/04/30 11:48:57;;;;;;;5.53;1.10;;;15.80;99.90;;;;;;4938171;29;20230;-78
2021/04/30 11:51:23;;;;;;;0.60;0.60;;;15.20;99.90;;;;;;4937582;29;20215;-78
2021/04/30 11:53:56;;;;;;;1.73;1.40;;;15.20;99.90;;;;;;4937693;29;20164;-78
2021/04/30 11:56:30;;;;;;;3.05;1.40;;;15.60;99.90;;;;;;4937623;29;20594;-79
2021/04/30 11:58:56;;;;;;;1.67;1.48;;;15.70;99.90;;;;;;4937407;29;20169;-78
2021/04/30 12:01:24;;;;;;;2.00;1.70;;;15.70;99.90;;;;;;4937542;29;20198;-77
2021/04/30 12:03:55;;;;;;;30.83;2.35;;;16.20;99.90;;;;;;4937656;29;20250;-78
2021/04/30 12:06:22;;;;;;;1.95;1.15;;;15.90;99.90;;;;;;4937592;29;20155;-79
2021/04/30 12:08:50;;;;;;;0.80;0.80;;;15.20;99.90;;;;;;4948706;28;20215;-79
2021/04/30 12:11:30;;;;;;;1.40;1.15;;;15.20;99.90;;;;;;4956302;28;20210;-77
2021/04/30 12:13:58;;;;;;;2.08;1.27;;;15.10;99.90;;;;;;4954905;29;20242;-79
2021/04/30 12:16:24;;;;;;;2.22;2.03;;;15.10;99.90;;;;;;4956587;28;20182;-78
2021/04/30 12:18:55;;;;;;;7.47;1.80;;;14.70;99.90;;;;;;4956117;28;20585;-78
2021/04/30 12:21:34;;;;;;;1.77;1.00;;;14.50;99.90;;;;;;4956318;28;20186;-78
2021/04/30 12:24:04;;;;;;;1.08;0.98;;;14.00;99.90;;;;;;4954839;29;20171;-79
2021/04/30 12:26:35;;;;;;;1.42;0.95;;;14.10;99.90;;;;;;4954837;29;20170;-78
2021/04/30 12:29:06;;;;;;;1.27;1.05;;;14.00;99.90;;;;;;4956285;28;20185;-81
2021/04/30 12:31:31;;;;;;;0.85;0.85;;;13.90;99.90;;;;;;4956415;28;20714;-78
2021/04/30 12:33:57;;;;;;;2.53;2.35;;;13.80;99.90;;;;;;4956921;28;20305;-77
2021/04/30 12:36:33;;;;;;;21.48;7.35;;;13.50;99.90;;;;;;4956572;28;20622;-79
2021/04/30 12:39:04;;;;;;;2.10;1.85;;;13.20;99.90;;;;;;4956738;28;20171;-78
2021/04/30 12:41:33;;;;;;;2.20;2.10;;;13.30;99.90;;;;;;4954752;28;20191;-77
2021/04/30 12:44:05;;;;;;;1.33;1.23;;;13.20;99.90;;;;;;4955891;28;20177;-78
2021/04/30 12:46:32;;;;;;;8.20;1.77;;;13.30;99.90;;;;;;4955546;28;20174;-78
2021/04/30 12:49:05;;;;;;;2.75;1.52;;;13.40;99.90;;;;;;4955594;28;20333;-78
2021/04/30 12:51:34;;;;;;;8.07;2.90;;;13.30;99.90;;;;;;4955500;28;20429;-79
2021/04/30 12:54:01;;;;;;;4.55;1.27;;;13.30;99.90;;;;;;4955420;28;20170;-78
2021/04/30 12:56:35;;;;;;;2.70;1.92;;;13.10;99.90;;;;;;4954392;29;20579;-81